Time;durP1;ratioP1;P1;durP2;ratioP2;P2;SDS_P1;SDS_P2;PMS_P1;PMS_P2;Temp;Humidity;BMP_temperature;BMP_pressure;BME280_temperature;BME280_humidity;BME280_pressure;Samples;Min_cycle;Max_cycle;Signal;HPM_P1;HPM_P2
2022/05/25 00:01:26;;;;;;;1.33;1.23;;;23.50;43.30;;;-147.20;100.00;58430.41;5095947;28;20055;-18
2022/05/25 00:03:52;;;;;;;1.20;1.10;;;23.50;43.30;;;-147.20;100.00;58430.41;5095309;28;20052;-18
2022/05/25 00:06:18;;;;;;;1.40;1.30;;;23.50;43.30;;;-147.20;100.00;58430.41;5076385;28;20053;-18
2022/05/25 00:08:44;;;;;;;1.38;1.15;;;23.50;43.30;;;-147.20;100.00;58430.41;5095270;28;20048;-19
2022/05/25 00:11:10;;;;;;;1.35;1.23;;;23.50;43.30;;;-147.20;100.00;58430.41;5095645;28;20051;-18
2022/05/25 00:13:36;;;;;;;1.60;1.00;;;23.50;43.30;;;-147.20;100.00;58430.41;5095710;28;20051;-18
2022/05/25 00:16:03;;;;;;;1.30;1.17;;;23.50;43.30;;;-147.20;100.00;58430.41;5095793;28;20369;-18
2022/05/25 00:18:30;;;;;;;1.50;1.23;;;23.50;43.30;;;-147.20;100.00;58430.41;5095102;28;20048;-18
2022/05/25 00:20:58;;;;;;;1.60;1.17;;;23.50;43.30;;;-147.20;100.00;58430.41;5094995;28;20044;-18
2022/05/25 00:23:24;;;;;;;1.25;1.10;;;23.50;43.30;;;-147.20;100.00;58430.41;5095179;28;20056;-18
2022/05/25 00:25:50;;;;;;;1.15;1.05;;;23.50;43.30;;;-147.20;100.00;58430.41;5094202;28;20054;-18
2022/05/25 00:28:16;;;;;;;1.10;1.00;;;23.50;43.90;;;-147.20;100.00;58430.41;5095020;28;20387;-18
2022/05/25 00:30:44;;;;;;;1.33;1.10;;;23.50;43.30;;;-147.20;100.00;58430.41;5095349;28;20126;-18
2022/05/25 00:33:12;;;;;;;1.38;1.27;;;23.50;43.30;;;-147.20;100.00;58430.41;5094999;28;20133;-18
2022/05/25 00:35:39;;;;;;;1.25;1.15;;;23.50;43.30;;;-147.20;100.00;58430.41;5094857;28;20063;-18
2022/05/25 00:38:07;;;;;;;1.30;1.20;;;23.50;43.40;;;-147.20;100.00;58430.41;5077040;28;20392;-18
2022/05/25 00:40:43;;;;;;;1.27;1.17;;;23.50;43.30;;;-147.20;100.00;58430.41;5094743;28;20484;-18
2022/05/25 00:43:14;;;;;;;1.40;1.30;;;23.50;43.40;;;-147.20;100.00;58430.41;5094860;28;20048;-18
2022/05/25 00:45:48;;;;;;;1.25;1.20;;;23.50;43.40;;;-147.20;100.00;58430.41;5095123;28;20131;-18
2022/05/25 00:48:41;;;;;;;1.23;1.13;;;23.50;43.40;;;-147.20;100.00;58430.41;5094867;28;20178;-18
2022/05/25 00:51:13;;;;;;;2.47;1.10;;;23.50;43.40;;;-147.20;100.00;58430.41;5094769;28;20135;-18
2022/05/25 00:53:43;;;;;;;1.33;1.20;;;23.50;43.40;;;-147.20;100.00;58430.41;5076860;28;20502;-19
2022/05/25 00:56:13;;;;;;;1.35;1.13;;;23.50;43.40;;;-147.20;100.00;58430.41;5094649;28;20055;-18
2022/05/25 00:58:43;;;;;;;1.17;0.98;;;23.50;43.30;;;-147.20;100.00;58430.41;5075461;28;20052;-18
2022/05/25 01:01:09;;;;;;;1.10;1.00;;;23.40;43.30;;;-147.20;100.00;58430.41;5076733;28;20052;-18
2022/05/25 01:03:35;;;;;;;1.55;1.30;;;23.40;43.90;;;-147.20;100.00;58430.41;5094438;28;20097;-18
2022/05/25 01:06:18;;;;;;;1.42;1.13;;;23.40;43.30;;;-147.20;100.00;58430.41;5094765;28;20101;-18
2022/05/25 01:09:05;;;;;;;1.13;1.00;;;23.40;43.30;;;-147.20;100.00;58430.41;5076043;28;20524;-18
2022/05/25 01:11:54;;;;;;;0.95;0.88;;;23.40;43.30;;;-147.20;100.00;58430.41;5094852;28;20445;-18
2022/05/25 01:14:40;;;;;;;1.50;1.20;;;23.40;43.30;;;-147.20;100.00;58430.41;5074490;28;20114;-18
2022/05/25 01:17:39;;;;;;;1.20;1.10;;;23.40;43.30;;;-147.20;100.00;58430.41;5076065;28;20052;-18
2022/05/25 01:20:29;;;;;;;1.13;1.02;;;23.40;43.30;;;-147.20;100.00;58430.41;5076507;28;20044;-18
2022/05/25 01:23:34;;;;;;;0.90;0.90;;;23.40;43.30;;;-147.20;100.00;58430.41;5094208;28;20040;-18
2022/05/25 01:26:51;;;;;;;1.23;1.08;;;23.40;43.30;;;-147.20;100.00;58430.41;5094173;28;20139;-18
2022/05/25 01:30:04;;;;;;;1.20;1.10;;;23.40;43.30;;;-147.20;100.00;58430.41;5076245;28;20060;-18
2022/05/25 01:33:12;;;;;;;1.63;1.40;;;23.40;43.30;;;-147.20;100.00;58430.41;5094414;28;20075;-19
2022/05/25 01:36:29;;;;;;;1.17;1.00;;;23.40;43.30;;;-147.20;100.00;58430.41;5076215;28;20133;-18
2022/05/25 01:39:09;;;;;;;1.02;1.02;;;23.40;43.30;;;-147.20;100.00;58430.41;5036734;28;20102;-18
2022/05/25 01:42:04;;;;;;;1.20;1.10;;;23.40;43.30;;;-147.20;100.00;58430.41;5076331;28;20052;-18
2022/05/25 01:44:40;;;;;;;1.15;1.05;;;23.40;43.30;;;-147.20;100.00;58430.41;5093911;28;20434;-18
2022/05/25 01:47:11;;;;;;;1.10;1.10;;;23.40;43.30;;;-147.20;100.00;58430.41;5075641;28;20740;-17
2022/05/25 01:49:55;;;;;;;1.10;0.90;;;23.40;43.30;;;-147.20;100.00;58430.41;5094110;28;20044;-18
2022/05/25 01:52:27;;;;;;;1.17;1.17;;;23.40;43.40;;;-147.20;100.00;58430.41;5075641;28;20040;-18
2022/05/25 01:55:03;;;;;;;1.70;1.00;;;23.40;43.30;;;-147.20;100.00;58430.41;5076138;28;20055;-18
2022/05/25 01:57:33;;;;;;;0.90;0.90;;;23.40;43.30;;;-147.20;100.00;58430.41;5073938;28;20063;-18
2022/05/25 01:59:59;;;;;;;0.70;0.70;;;23.40;43.30;;;-147.20;100.00;58430.41;5059080;28;20048;-18
2022/05/25 02:05:14;;;;;;;1.13;1.10;;;23.40;43.30;;;-147.20;100.00;58430.41;5093478;28;20488;-18
2022/05/25 02:08:02;;;;;;;1.45;1.10;;;23.40;43.30;;;-147.20;100.00;58430.41;5074784;28;20048;-18
2022/05/25 02:10:56;;;;;;;1.73;1.00;;;23.40;43.30;;;-147.20;100.00;58430.41;5075449;28;20121;-18
2022/05/25 02:13:30;;;;;;;1.17;0.90;;;23.40;43.30;;;-147.20;100.00;58430.41;5075814;28;20059;-18
2022/05/25 02:16:23;;;;;;;1.10;1.00;;;23.40;43.30;;;-147.20;100.00;58430.41;5093502;28;20052;-18
2022/05/25 02:19:36;;;;;;;1.20;1.10;;;23.40;43.30;;;-147.20;100.00;58430.41;5073514;28;20060;-18
2022/05/25 02:22:19;;;;;;;1.10;1.02;;;23.40;43.30;;;-147.20;100.00;58430.41;5057058;28;20063;-18
2022/05/25 02:25:01;;;;;;;1.10;1.00;;;23.40;43.40;;;-147.20;100.00;58430.41;5093616;28;20102;-18
2022/05/25 02:27:41;;;;;;;1.13;0.90;;;23.40;43.30;;;-147.20;100.00;58430.41;5075614;28;20133;-18
2022/05/25 02:30:16;;;;;;;1.02;0.90;;;23.40;43.30;;;-147.20;100.00;58430.41;5093132;28;20050;-18
2022/05/25 02:32:47;;;;;;;1.30;1.20;;;23.40;43.30;;;-147.20;100.00;58430.41;5093465;28;20079;-18
2022/05/25 02:35:15;;;;;;;1.25;1.02;;;23.40;43.30;;;-147.20;100.00;58430.41;5074772;28;20068;-18
2022/05/25 02:37:43;;;;;;;1.02;0.93;;;23.30;43.30;;;-147.20;100.00;58430.41;5092983;28;20415;-18
2022/05/25 02:40:11;;;;;;;1.20;1.10;;;23.40;43.40;;;-147.20;100.00;58430.41;5092975;28;20051;-18
2022/05/25 02:42:38;;;;;;;1.17;1.00;;;23.40;43.30;;;-147.20;100.00;58430.41;5074864;28;20082;-18
2022/05/25 02:45:05;;;;;;;1.10;1.00;;;23.30;43.80;;;-147.20;100.00;58430.41;5093295;28;20052;-18
2022/05/25 02:47:31;;;;;;;1.67;1.13;;;23.40;43.30;;;-147.20;100.00;58430.41;5092644;28;20044;-18
2022/05/25 02:49:56;;;;;;;0.88;0.88;;;23.40;43.30;;;-147.20;100.00;58430.41;5091668;28;20046;-18
2022/05/25 02:52:23;;;;;;;1.00;0.90;;;23.30;43.30;;;-147.20;100.00;58430.41;5092904;28;20048;-18
2022/05/25 02:54:48;;;;;;;1.00;0.90;;;23.40;43.30;;;-147.20;100.00;58430.41;5092995;28;20415;-18
2022/05/25 02:57:14;;;;;;;1.20;1.10;;;23.30;43.30;;;-147.20;100.00;58430.41;5092725;28;20060;-18
2022/05/25 02:59:40;;;;;;;0.85;0.85;;;23.30;43.30;;;-147.20;100.00;58430.41;5092831;28;20044;-19
2022/05/25 03:02:06;;;;;;;1.30;1.20;;;23.30;43.30;;;-147.20;100.00;58430.41;5091448;28;20055;-18
2022/05/25 03:04:33;;;;;;;0.93;0.90;;;23.30;43.30;;;-147.20;100.00;58430.41;5092701;28;20491;-18
2022/05/25 03:06:59;;;;;;;1.65;0.85;;;23.30;43.30;;;-147.20;100.00;58430.41;5092560;28;20052;-18
2022/05/25 03:09:25;;;;;;;1.63;1.08;;;23.30;43.30;;;-147.20;100.00;58430.41;5092581;28;20117;-18
2022/05/25 03:11:50;;;;;;;2.03;0.90;;;23.40;43.90;;;-147.20;100.00;58430.41;5092926;28;20044;-18
2022/05/25 03:14:16;;;;;;;0.90;0.90;;;23.30;43.30;;;-147.20;100.00;58430.41;5074337;28;20184;-18
2022/05/25 03:16:42;;;;;;;1.92;1.10;;;23.30;43.30;;;-147.20;100.00;58430.41;5092573;28;20097;-19
2022/05/25 03:19:09;;;;;;;1.30;1.20;;;23.30;43.30;;;-147.20;100.00;58430.41;5092522;28;20044;-19
2022/05/25 03:21:34;;;;;;;1.13;1.00;;;23.30;43.30;;;-147.20;100.00;58430.41;5092308;28;20465;-19
2022/05/25 03:24:00;;;;;;;1.00;0.80;;;23.30;43.20;;;-147.20;100.00;58430.41;5092336;28;20052;-19
2022/05/25 03:26:26;;;;;;;1.33;0.95;;;23.30;43.20;;;-147.20;100.00;58430.41;5092245;28;20105;-19
2022/05/25 03:28:52;;;;;;;0.90;0.90;;;23.30;43.30;;;-147.20;100.00;58430.41;5092214;28;20083;-19
2022/05/25 03:31:18;;;;;;;0.80;0.80;;;23.30;43.30;;;-147.20;100.00;58430.41;5092498;28;20060;-18
2022/05/25 03:33:43;;;;;;;0.93;0.80;;;23.30;43.30;;;-147.20;100.00;58430.41;5092185;28;20048;-19
2022/05/25 03:36:09;;;;;;;1.67;1.25;;;23.30;43.30;;;-147.20;100.00;58430.41;5092285;28;20044;-19
2022/05/25 03:38:36;;;;;;;1.13;0.95;;;23.30;43.80;;;-147.20;100.00;58430.41;5092019;28;20067;-19
2022/05/25 03:41:02;;;;;;;1.77;1.00;;;23.30;43.30;;;-147.20;100.00;58430.41;5092349;28;20399;-18
2022/05/25 03:43:35;;;;;;;1.00;0.90;;;23.30;43.20;;;-147.20;100.00;58430.41;5092431;28;20044;-18
2022/05/25 03:46:01;;;;;;;1.15;0.90;;;23.30;43.30;;;-147.20;100.00;58430.41;5092443;28;20078;-18
2022/05/25 03:48:27;;;;;;;1.30;1.00;;;23.30;43.20;;;-147.20;100.00;58430.41;5092400;28;20083;-19
2022/05/25 03:50:52;;;;;;;1.10;1.00;;;23.30;43.20;;;-147.20;100.00;58430.41;5092316;28;20144;-18
2022/05/25 03:53:18;;;;;;;1.45;1.00;;;23.30;43.20;;;-147.20;100.00;58430.41;5092104;28;20056;-18
2022/05/25 03:55:44;;;;;;;1.10;1.00;;;23.30;43.20;;;-147.20;100.00;58430.41;5090710;28;20044;-19
2022/05/25 03:58:11;;;;;;;0.88;0.88;;;23.40;43.30;;;-147.20;100.00;58430.41;5091939;28;20052;-19
2022/05/25 04:00:37;;;;;;;1.20;0.70;;;23.30;43.20;;;-147.20;100.00;58430.41;5092569;28;20071;-18
2022/05/25 04:03:04;;;;;;;0.70;0.70;;;23.30;43.20;;;-147.20;100.00;58430.41;5095531;28;20398;-18
2022/05/25 04:05:32;;;;;;;0.80;0.80;;;23.30;43.20;;;-147.20;100.00;58430.41;5096064;28;20055;-19
2022/05/25 04:08:00;;;;;;;0.80;0.80;;;23.40;43.20;;;-147.20;100.00;58430.41;5095270;28;20468;-18
2022/05/25 04:10:27;;;;;;;0.95;0.77;;;23.40;43.20;;;-147.20;100.00;58430.41;5095418;28;20396;-19
2022/05/25 04:12:53;;;;;;;1.33;1.10;;;23.40;43.20;;;-147.20;100.00;58430.41;5095603;28;20048;-20
2022/05/25 04:15:23;;;;;;;1.23;0.85;;;23.40;43.10;;;-147.20;100.00;58430.41;5095208;28;20078;-18
2022/05/25 04:17:49;;;;;;;1.00;0.90;;;23.40;43.00;;;-147.20;100.00;58430.41;5095571;28;20048;-18
2022/05/25 04:20:17;;;;;;;0.80;0.80;;;23.50;43.00;;;-147.20;100.00;58430.41;5095140;28;20150;-19
2022/05/25 04:22:44;;;;;;;0.85;0.85;;;23.60;42.90;;;-147.20;100.00;58430.41;5095642;28;20181;-18
2022/05/25 04:25:13;;;;;;;1.17;0.90;;;23.60;42.90;;;-147.20;100.00;58430.41;5094863;28;20063;-18
2022/05/25 04:27:41;;;;;;;1.02;0.80;;;23.60;42.80;;;-147.20;100.00;58430.41;5094995;28;20048;-18
2022/05/25 04:30:11;;;;;;;1.20;0.98;;;23.70;42.70;;;-147.20;100.00;58430.41;5094939;28;20120;-18
2022/05/25 04:32:37;;;;;;;1.02;0.90;;;23.70;42.70;;;-147.20;100.00;58430.41;5095452;28;20392;-19
2022/05/25 04:35:03;;;;;;;0.70;0.70;;;23.80;42.60;;;-147.20;100.00;58430.41;5094813;28;20048;-18
2022/05/25 04:40:14;;;;;;;0.98;0.88;;;23.90;42.50;;;-147.20;100.00;58430.41;5095141;28;20040;-19
2022/05/25 04:42:40;;;;;;;1.33;1.10;;;23.90;42.40;;;-147.20;100.00;58430.41;5094527;28;20116;-19
2022/05/25 04:45:07;;;;;;;1.05;0.82;;;24.00;42.50;;;-147.20;100.00;58430.41;5094925;28;20096;-19
2022/05/25 04:47:35;;;;;;;0.80;0.80;;;24.10;42.50;;;-147.20;100.00;58430.41;5095380;28;20055;-18
2022/05/25 04:50:01;;;;;;;0.75;0.75;;;24.10;42.50;;;-147.20;100.00;58430.41;5094681;28;20048;-19
2022/05/25 04:52:28;;;;;;;0.90;0.90;;;24.10;42.40;;;-147.20;100.00;58430.41;5094738;28;20113;-18
2022/05/25 04:54:53;;;;;;;1.15;0.90;;;24.20;42.40;;;-147.20;100.00;58430.41;5094994;28;20044;-18
2022/05/25 04:57:20;;;;;;;0.98;0.90;;;24.20;42.30;;;-147.20;100.00;58430.41;5094565;28;20051;-19
2022/05/25 04:59:55;;;;;;;1.08;1.02;;;24.30;42.20;;;-147.20;100.00;58430.41;5094909;28;20097;-18
2022/05/25 05:02:20;;;;;;;0.95;0.80;;;24.30;42.10;;;-147.20;100.00;58430.41;5094943;28;20048;-19
2022/05/25 05:04:47;;;;;;;1.17;0.90;;;24.40;42.10;;;-147.20;100.00;58430.41;5094479;28;20465;-18
2022/05/25 05:07:14;;;;;;;0.80;0.80;;;24.40;42.00;;;-147.20;100.00;58430.41;5094853;28;20041;-19
2022/05/25 05:09:43;;;;;;;0.95;0.90;;;24.40;42.00;;;-147.20;100.00;58430.41;5076332;28;20040;-19
2022/05/25 05:12:10;;;;;;;0.80;0.80;;;24.50;41.80;;;-147.20;100.00;58430.41;5093411;28;20044;-19
2022/05/25 05:14:37;;;;;;;1.00;0.90;;;24.50;41.70;;;-147.20;100.00;58430.41;5094486;28;20177;-19
2022/05/25 05:17:07;;;;;;;1.58;0.93;;;24.60;41.60;;;-147.20;100.00;58430.41;5094347;28;20044;-19
2022/05/25 05:19:52;;;;;;;1.33;0.90;;;24.70;41.60;;;-147.20;100.00;58430.41;5076615;28;20130;-19
2022/05/25 05:22:18;;;;;;;0.80;0.80;;;24.70;41.50;;;-147.20;100.00;58430.41;5075975;28;20071;-19
2022/05/25 05:24:44;;;;;;;1.92;1.00;;;24.70;41.40;;;-147.20;100.00;58430.41;5094824;28;20062;-19
2022/05/25 05:27:11;;;;;;;1.33;1.13;;;24.80;41.80;;;-147.20;100.00;58430.41;5094120;28;20044;-19
2022/05/25 05:29:36;;;;;;;2.63;1.00;;;24.80;41.70;;;-147.20;100.00;58430.41;5093988;28;20060;-19
2022/05/25 05:32:02;;;;;;;2.38;0.98;;;24.80;42.20;;;-147.20;100.00;58430.41;5075654;28;20059;-20
2022/05/25 05:34:28;;;;;;;5.85;1.17;;;24.90;43.70;;;-147.20;100.00;58430.41;5093855;28;20048;-19
2022/05/25 05:37:01;;;;;;;5.85;1.15;;;24.90;44.30;;;-147.20;100.00;58430.41;5094202;28;20050;-19
2022/05/25 05:39:32;;;;;;;1.80;0.90;;;24.90;45.20;;;-147.20;100.00;58430.41;5094102;28;20066;-19
2022/05/25 05:42:04;;;;;;;1.30;1.10;;;24.90;45.80;;;-147.20;100.00;58430.41;5094180;28;20480;-20
2022/05/25 05:44:37;;;;;;;3.42;1.30;;;24.90;45.80;;;-147.20;100.00;58430.41;5075811;28;20091;-19
2022/05/25 05:47:07;;;;;;;1.95;1.10;;;24.90;45.90;;;-147.20;100.00;58430.41;5075658;28;20072;-19
2022/05/25 05:49:35;;;;;;;3.53;1.23;;;25.00;45.90;;;-147.20;100.00;58430.41;5074568;28;20132;-19
2022/05/25 05:52:01;;;;;;;2.67;1.20;;;25.00;45.90;;;-147.20;100.00;58430.41;5075522;28;20135;-19
2022/05/25 05:54:27;;;;;;;4.53;1.10;;;25.00;45.70;;;-147.20;100.00;58430.41;5093481;28;20051;-19
2022/05/25 05:56:52;;;;;;;3.15;1.10;;;25.00;45.70;;;-147.20;100.00;58430.41;5074786;28;20045;-19
2022/05/25 05:59:18;;;;;;;4.25;1.10;;;25.00;45.70;;;-147.20;100.00;58430.41;5093501;28;20068;-19
2022/05/25 06:01:45;;;;;;;2.85;0.90;;;25.00;45.60;;;-147.20;100.00;58430.41;5092006;28;20039;-20
2022/05/25 06:04:12;;;;;;;1.88;1.00;;;25.00;45.40;;;-147.20;100.00;58430.41;5093392;28;20076;-19
2022/05/25 06:06:38;;;;;;;1.67;1.10;;;25.00;45.30;;;-147.20;100.00;58430.41;5093337;28;20399;-19
2022/05/25 06:09:05;;;;;;;3.90;0.93;;;25.00;45.20;;;-147.20;100.00;58430.41;5092966;28;20048;-20
2022/05/25 06:11:32;;;;;;;2.10;0.98;;;25.00;45.10;;;-147.20;100.00;58430.41;5092921;28;20044;-19
2022/05/25 06:13:58;;;;;;;5.13;1.15;;;25.00;45.00;;;-147.20;100.00;58430.41;5092632;28;20400;-20
2022/05/25 06:19:26;;;;;;;3.47;1.33;;;25.00;44.90;;;-147.20;100.00;58430.41;5093142;28;20131;-19
2022/05/25 06:21:58;;;;;;;4.65;0.90;;;25.10;44.80;;;-147.20;100.00;58430.41;5093516;28;20089;-19
2022/05/25 06:24:26;;;;;;;2.03;1.08;;;25.20;44.60;;;-147.20;100.00;58430.41;5093336;28;20097;-19
2022/05/25 06:26:52;;;;;;;2.97;1.00;;;25.20;44.50;;;-147.20;100.00;58430.41;5093038;28;20408;-19
2022/05/25 06:29:20;;;;;;;1.75;0.93;;;25.20;44.40;;;-147.20;100.00;58430.41;5092886;28;20044;-19
2022/05/25 06:31:48;;;;;;;1.58;0.80;;;25.30;44.30;;;-147.20;100.00;58430.41;5093023;28;20080;-19
2022/05/25 06:34:15;;;;;;;1.98;0.90;;;25.30;44.20;;;-147.20;100.00;58430.41;5092878;28;20052;-19
2022/05/25 06:36:42;;;;;;;3.85;1.00;;;25.40;44.10;;;-147.20;100.00;58430.41;5092903;28;20411;-19
2022/05/25 06:39:08;;;;;;;1.20;0.93;;;25.40;43.90;;;-147.20;100.00;58430.41;5092847;28;20048;-19
2022/05/25 06:41:34;;;;;;;3.50;0.98;;;25.40;43.90;;;-147.20;100.00;58430.41;5093044;28;20151;-19
2022/05/25 06:44:00;;;;;;;2.45;0.90;;;25.40;43.80;;;-147.20;100.00;58430.41;5073489;28;20084;-19
2022/05/25 06:46:27;;;;;;;1.73;1.00;;;25.50;43.70;;;-147.20;100.00;58430.41;5092949;28;20059;-18
2022/05/25 06:48:55;;;;;;;1.88;1.20;;;25.50;43.60;;;-147.20;100.00;58430.41;5074254;28;20052;-19
2022/05/25 06:51:24;;;;;;;1.13;0.93;;;25.60;43.50;;;-147.20;100.00;58430.41;5092545;28;20052;-19
2022/05/25 06:53:50;;;;;;;1.85;0.80;;;25.60;43.40;;;-147.20;100.00;58430.41;5092726;28;20047;-18
2022/05/25 06:56:18;;;;;;;0.88;0.70;;;25.60;43.40;;;-147.20;100.00;58430.41;5072921;28;20056;-19
2022/05/25 06:58:44;;;;;;;2.60;0.90;;;25.60;43.30;;;-147.20;100.00;58430.41;5092529;28;20055;-19
2022/05/25 07:01:10;;;;;;;1.90;1.05;;;25.60;43.20;;;-147.20;100.00;58430.41;5092741;28;20089;-19
2022/05/25 07:03:38;;;;;;;1.27;1.10;;;25.60;43.10;;;-147.20;100.00;58430.41;5093063;28;20052;-19
2022/05/25 07:06:09;;;;;;;1.20;0.90;;;25.60;43.10;;;-147.20;100.00;58430.41;5092522;28;20194;-18
2022/05/25 07:08:35;;;;;;;0.70;0.70;;;25.70;43.10;;;-147.20;100.00;58430.41;5092226;28;20052;-19
2022/05/25 07:11:02;;;;;;;0.88;0.85;;;25.70;43.00;;;-147.20;100.00;58430.41;5092781;28;20040;-18
2022/05/25 07:13:30;;;;;;;2.55;0.90;;;25.70;42.90;;;-147.20;100.00;58430.41;5092386;28;20048;-19
2022/05/25 07:16:02;;;;;;;1.50;0.80;;;25.70;42.90;;;-147.20;100.00;58430.41;5092549;28;20052;-19
2022/05/25 07:18:28;;;;;;;1.73;0.90;;;25.70;42.90;;;-147.20;100.00;58430.41;5092326;28;20059;-19
2022/05/25 07:21:08;;;;;;;1.20;0.85;;;25.70;42.80;;;-147.20;100.00;58430.41;5073267;28;20055;-19
2022/05/25 07:23:35;;;;;;;3.17;1.00;;;25.80;42.80;;;-147.20;100.00;58430.41;5092583;28;20048;-19
2022/05/25 07:26:02;;;;;;;1.27;0.98;;;25.80;42.80;;;-147.20;100.00;58430.41;5092881;28;20044;-18
2022/05/25 07:28:28;;;;;;;1.00;0.82;;;25.80;42.70;;;-147.20;100.00;58430.41;5092021;28;20048;-19
2022/05/25 07:31:02;;;;;;;0.90;0.90;;;25.80;42.70;;;-147.20;100.00;58430.41;5092023;28;20051;-19
2022/05/25 07:33:29;;;;;;;2.10;0.93;;;25.80;42.60;;;-147.20;100.00;58430.41;5074054;28;20462;-20
2022/05/25 07:35:55;;;;;;;1.55;0.70;;;25.80;43.10;;;-147.20;100.00;58430.41;5093472;28;20063;-19
2022/05/25 07:38:21;;;;;;;2.00;1.00;;;25.80;42.50;;;-147.20;100.00;58430.41;5095567;28;20044;-19
2022/05/25 07:40:47;;;;;;;2.20;0.90;;;25.80;42.50;;;-147.20;100.00;58430.41;5095409;28;20052;-19
2022/05/25 07:43:18;;;;;;;2.08;0.90;;;25.90;42.40;;;-147.20;100.00;58430.41;5095818;28;20051;-19
2022/05/25 07:45:45;;;;;;;1.10;0.90;;;25.90;42.40;;;-147.20;100.00;58430.41;5095869;28;20413;-19
2022/05/25 07:48:12;;;;;;;3.05;1.13;;;25.90;42.30;;;-147.20;100.00;58430.41;5095312;28;20134;-19
2022/05/25 07:50:38;;;;;;;1.10;1.00;;;25.90;42.30;;;-147.20;100.00;58430.41;5094179;28;20127;-19
2022/05/25 07:53:55;;;;;;;1.25;1.00;;;25.90;42.30;;;-147.20;100.00;58430.41;5060998;28;20048;-19
2022/05/25 07:55:52;;;;;;;0.82;0.75;;;25.90;42.20;;;-147.20;100.00;58430.41;5094793;28;20063;-19
2022/05/25 07:58:18;;;;;;;2.35;1.10;;;25.90;42.20;;;-147.20;100.00;58430.41;5095014;28;20399;-18
2022/05/25 08:00:43;;;;;;;1.13;0.77;;;25.90;42.10;;;-147.20;100.00;58430.41;5095167;28;20050;-19
2022/05/25 08:05:59;;;;;;;1.15;0.70;;;25.90;42.20;;;-147.20;100.00;58430.41;5095388;28;20052;-19
2022/05/25 08:08:25;;;;;;;0.70;0.70;;;25.90;42.20;;;-147.20;100.00;58430.41;5095310;28;20048;-21
2022/05/25 08:10:58;;;;;;;0.82;0.68;;;25.90;42.20;;;-147.20;100.00;58430.41;5095097;28;20044;-19
2022/05/25 08:13:24;;;;;;;1.52;0.80;;;25.90;42.20;;;-147.20;100.00;58430.41;5076916;28;20044;-19
2022/05/25 08:15:50;;;;;;;0.80;0.80;;;25.80;42.10;;;-147.20;100.00;58430.41;5095492;28;20097;-19
2022/05/25 08:18:19;;;;;;;1.20;1.00;;;25.80;42.20;;;-147.20;100.00;58430.41;5095202;28;20052;-20
2022/05/25 08:20:45;;;;;;;3.35;0.90;;;25.80;42.10;;;-147.20;100.00;58430.41;5095118;28;20547;-20
2022/05/25 08:23:15;;;;;;;2.20;0.93;;;25.70;42.20;;;-147.20;100.00;58430.41;5095016;28;20403;-20
2022/05/25 08:25:42;;;;;;;1.35;0.90;;;25.70;42.20;;;-147.20;100.00;58430.41;5076737;28;20446;-20
2022/05/25 08:28:08;;;;;;;0.82;0.82;;;25.60;42.20;;;-147.20;100.00;58430.41;5095313;28;20460;-20
2022/05/25 08:30:37;;;;;;;1.02;0.90;;;25.60;42.30;;;-147.20;100.00;58430.41;5094780;28;20071;-20
2022/05/25 08:33:04;;;;;;;3.15;1.00;;;25.60;42.20;;;-147.20;100.00;58430.41;5094553;28;20480;-19
2022/05/25 08:35:30;;;;;;;1.13;0.88;;;25.60;42.20;;;-147.20;100.00;58430.41;5094606;28;20044;-19
2022/05/25 08:37:57;;;;;;;1.30;0.90;;;25.50;42.10;;;-147.20;100.00;58430.41;5094540;28;20047;-20
2022/05/25 08:40:25;;;;;;;0.98;0.88;;;25.50;42.20;;;-147.20;100.00;58430.41;5094644;28;20126;-19
2022/05/25 08:43:12;;;;;;;2.97;0.93;;;25.40;42.10;;;-147.20;100.00;58430.41;5094686;28;20127;-19
2022/05/25 08:45:44;;;;;;;1.70;0.77;;;25.50;42.10;;;-147.20;100.00;58430.41;5076226;28;20407;-19
2022/05/25 08:48:13;;;;;;;0.80;0.80;;;25.50;42.20;;;-147.20;100.00;58430.41;5058662;28;20400;-19
2022/05/25 08:50:41;;;;;;;1.67;1.10;;;25.50;42.10;;;-147.20;100.00;58430.41;5076293;28;20048;-20
2022/05/25 08:53:11;;;;;;;1.75;0.90;;;25.40;42.10;;;-147.20;100.00;58430.41;5094612;28;20059;-19
2022/05/25 08:56:08;;;;;;;1.15;0.90;;;25.40;42.10;;;-147.20;100.00;58430.41;5094156;28;20102;-19
2022/05/25 08:58:53;;;;;;;1.50;0.95;;;25.40;42.10;;;-147.20;100.00;58430.41;5076743;28;20055;-19
2022/05/25 09:01:28;;;;;;;2.78;0.70;;;25.40;42.10;;;-147.20;100.00;58430.41;5075212;28;20392;-19
2022/05/25 09:04:30;;;;;;;0.70;0.70;;;25.40;41.90;;;-147.20;100.00;58430.41;5094124;28;20040;-19
2022/05/25 09:07:15;;;;;;;0.90;0.90;;;25.40;42.10;;;-147.20;100.00;58430.41;5094027;28;20093;-19
2022/05/25 09:09:47;;;;;;;0.82;0.80;;;25.40;42.10;;;-147.20;100.00;58430.41;5094220;28;20036;-19
2022/05/25 09:12:38;;;;;;;0.88;0.75;;;25.30;42.10;;;-147.20;100.00;58430.41;5094896;28;20109;-20
2022/05/25 09:15:09;;;;;;;0.93;0.82;;;25.30;42.10;;;-147.20;100.00;58430.41;5094125;28;20113;-20
2022/05/25 09:17:43;;;;;;;1.20;0.70;;;25.30;42.10;;;-147.20;100.00;58430.41;5094485;28;20130;-19
2022/05/25 09:20:13;;;;;;;1.38;0.82;;;25.30;42.10;;;-147.20;100.00;58430.41;5094013;28;20063;-19
2022/05/25 09:22:41;;;;;;;1.08;0.80;;;25.20;42.10;;;-147.20;100.00;58430.41;5093996;28;20403;-19
2022/05/25 09:25:12;;;;;;;0.80;0.80;;;25.20;42.10;;;-147.20;100.00;58430.41;5076015;28;20442;-20
2022/05/25 09:27:52;;;;;;;0.70;0.70;;;25.20;42.10;;;-147.20;100.00;58430.41;5075794;28;20048;-20
2022/05/25 09:30:19;;;;;;;0.80;0.77;;;25.20;42.10;;;-147.20;100.00;58430.41;5094666;28;20046;-20
2022/05/25 09:32:56;;;;;;;0.77;0.77;;;25.20;42.10;;;-147.20;100.00;58430.41;5093981;28;20051;-19
2022/05/25 09:35:34;;;;;;;0.82;0.80;;;25.20;42.00;;;-147.20;100.00;58430.41;5093741;28;20051;-20
2022/05/25 09:38:06;;;;;;;1.40;1.00;;;25.20;42.00;;;-147.20;100.00;58430.41;5075555;28;20079;-20
2022/05/25 09:40:50;;;;;;;2.42;0.85;;;25.20;42.00;;;-147.20;100.00;58430.41;5094189;28;20130;-19
2022/05/25 09:43:24;;;;;;;1.25;0.90;;;25.20;42.00;;;-147.20;100.00;58430.41;5093847;28;20040;-19
2022/05/25 09:45:53;;;;;;;0.90;0.88;;;25.20;42.00;;;-147.20;100.00;58430.41;5093797;28;20098;-20
2022/05/25 09:48:26;;;;;;;1.40;0.90;;;25.20;42.10;;;-147.20;100.00;58430.41;5075984;28;20456;-19
2022/05/25 09:51:04;;;;;;;2.15;0.90;;;25.20;42.00;;;-147.20;100.00;58430.41;5094258;28;20139;-20
2022/05/25 09:53:55;;;;;;;0.75;0.75;;;25.20;42.10;;;-147.20;100.00;58430.41;5093797;28;20373;-19
2022/05/25 09:56:45;;;;;;;2.85;0.80;;;25.20;42.00;;;-147.20;100.00;58430.41;5025751;28;20086;-19
2022/05/25 09:59:21;;;;;;;1.30;1.00;;;25.20;41.90;;;-147.20;100.00;58430.41;5073713;28;20131;-20
2022/05/25 10:01:49;;;;;;;1.33;0.75;;;25.20;41.90;;;-147.20;100.00;58430.41;5075335;28;20043;-19
2022/05/25 10:04:58;;;;;;;1.42;0.80;;;25.20;42.00;;;-147.20;100.00;58430.41;5074951;28;20068;-19
2022/05/25 10:07:35;;;;;;;0.80;0.80;;;25.20;42.00;;;-147.20;100.00;58430.41;5074575;28;20051;-19
2022/05/25 10:10:07;;;;;;;1.95;0.75;;;25.20;41.90;;;-147.20;100.00;58430.41;5093290;28;20071;-19
2022/05/25 10:12:42;;;;;;;1.10;0.85;;;25.20;41.80;;;-147.20;100.00;58430.41;5075036;28;20056;-19
2022/05/25 10:15:13;;;;;;;1.05;0.95;;;25.10;41.80;;;-147.20;100.00;58430.41;5092945;28;20105;-19
2022/05/25 10:17:40;;;;;;;1.35;0.80;;;25.10;41.80;;;-147.20;100.00;58430.41;5093178;28;20052;-20
2022/05/25 10:20:36;;;;;;;1.38;1.02;;;25.10;41.90;;;-147.20;100.00;58430.41;5093016;28;20044;-19
2022/05/25 10:23:30;;;;;;;0.95;0.95;;;25.10;41.80;;;-147.20;100.00;58430.41;5075312;28;20593;-20
2022/05/25 10:26:09;;;;;;;1.05;0.80;;;25.10;41.80;;;-147.20;100.00;58430.41;5088146;28;20135;-19
2022/05/25 10:28:46;;;;;;;0.95;0.85;;;25.10;41.80;;;-147.20;100.00;58430.41;5093102;28;20134;-19
2022/05/25 10:37:37;;;;;;;1.23;0.80;;;25.10;41.80;;;-147.20;100.00;58430.41;5092900;28;20068;-20